createdAt,value
2023-11-30T00:04:27.332Z,44.38
2023-11-30T00:09:34.012Z,39.53
2023-11-30T00:14:42.083Z,40.22
2023-11-30T00:19:48.560Z,41.00
2023-11-30T00:24:55.138Z,34.95
2023-11-30T00:30:03.027Z,34.03
2023-11-30T00:35:12.109Z,49.95
2023-11-30T00:40:21.314Z,50.53
2023-11-30T00:45:29.123Z,44.60
2023-11-30T00:50:35.567Z,45.23
2023-11-30T00:55:42.023Z,51.50
2023-11-30T01:00:50.295Z,48.75
2023-11-30T01:05:57.308Z,62.10
2023-11-30T01:11:06.026Z,57.92
2023-11-30T01:21:20.158Z,61.03
2023-11-30T01:26:26.810Z,59.42
2023-11-30T01:31:34.866Z,54.83
2023-11-30T01:36:42.093Z,47.70
2023-11-30T01:41:48.609Z,48.28
2023-11-30T01:46:56.756Z,48.38
2023-11-30T01:52:04.068Z,47.53
2023-11-30T01:57:10.553Z,41.22
2023-11-30T02:02:19.896Z,46.65
2023-11-30T02:07:26.495Z,49.10
2023-11-30T02:12:33.700Z,42.50
2023-11-30T02:17:41.623Z,38.70
2023-11-30T02:22:49.700Z,36.23
2023-11-30T02:27:56.423Z,30.40
2023-11-30T02:33:03.353Z,43.20
2023-11-30T02:38:11.126Z,41.88
2023-11-30T02:43:17.607Z,39.30
2023-11-30T02:48:24.203Z,41.45
2023-11-30T02:53:32.120Z,42.90
2023-11-30T02:58:38.621Z,43.13
2023-11-30T03:03:45.082Z,40.47
2023-11-30T03:08:52.944Z,42.33
2023-11-30T03:13:59.610Z,40.65
2023-11-30T03:19:14.608Z,37.80
2023-11-30T03:24:26.671Z,32.77
2023-11-30T03:29:33.026Z,36.63
2023-11-30T03:34:39.405Z,34.83
2023-11-30T03:39:47.585Z,36.40
2023-11-30T03:44:54.036Z,32.83
2023-11-30T03:50:00.459Z,37.08
2023-11-30T03:55:09.348Z,38.05
2023-11-30T04:00:17.925Z,36.50
2023-11-30T04:05:25.601Z,33.42
2023-11-30T04:10:33.261Z,35.50
2023-11-30T04:15:39.984Z,38.05
2023-11-30T04:20:46.583Z,36.40
2023-11-30T04:25:54.324Z,32.00
2023-11-30T04:31:01.888Z,29.90
2023-11-30T04:36:09.827Z,38.22
2023-11-30T04:41:17.894Z,24.27
2023-11-30T04:46:25.135Z,34.40
2023-11-30T04:51:31.757Z,41.05
2023-11-30T04:56:40.225Z,40.00
2023-11-30T05:01:47.355Z,39.95
2023-11-30T05:06:54.294Z,38.63
2023-11-30T05:12:02.376Z,40.22
2023-11-30T05:17:08.857Z,46.05
2023-11-30T05:22:15.210Z,42.45
2023-11-30T05:27:22.957Z,41.17
2023-11-30T05:32:30.051Z,36.78
2023-11-30T05:37:36.762Z,52.80
2023-11-30T05:42:44.737Z,39.30
2023-11-30T05:47:51.335Z,36.87
2023-11-30T05:52:58.113Z,32.75
2023-11-30T05:58:05.948Z,33.65
2023-11-30T06:03:12.591Z,34.97
2023-11-30T06:08:19.183Z,40.83
2023-11-30T06:13:27.339Z,34.72
2023-11-30T06:18:33.962Z,44.78
2023-11-30T06:23:40.798Z,46.33
2023-11-30T06:28:48.499Z,42.08
2023-11-30T06:33:54.733Z,41.72
2023-11-30T06:39:01.392Z,39.83
2023-11-30T06:44:09.460Z,55.80
2023-11-30T06:49:16.006Z,57.67
2023-11-30T06:54:22.302Z,78.30
2023-11-30T06:59:33.255Z,50.10
2023-11-30T07:04:40.418Z,38.30
2023-11-30T07:09:47.473Z,29.63
2023-11-30T07:14:56.107Z,28.58
2023-11-30T07:25:10.864Z,33.10
2023-11-30T07:30:19.270Z,27.58
2023-11-30T07:35:25.623Z,31.38
2023-11-30T07:40:33.811Z,36.40
2023-11-30T07:45:41.758Z,32.17
2023-11-30T07:50:48.022Z,34.33
2023-11-30T07:55:58.440Z,36.25
2023-11-30T08:01:09.600Z,35.92
2023-11-30T08:06:16.046Z,34.15
2023-11-30T08:11:22.814Z,38.90
2023-11-30T08:16:30.397Z,34.38
2023-11-30T08:21:41.760Z,31.08
2023-11-30T08:26:48.544Z,28.23
2023-11-30T08:31:56.346Z,30.02
2023-11-30T08:37:02.646Z,25.00
2023-11-30T08:42:10.905Z,25.90
2023-11-30T08:47:18.566Z,32.08
2023-11-30T08:52:25.617Z,25.13
2023-11-30T08:57:31.888Z,22.17
2023-11-30T09:02:39.744Z,28.63
2023-11-30T09:07:45.991Z,21.45
2023-11-30T09:12:52.288Z,33.47
2023-11-30T09:18:02.527Z,34.83
2023-11-30T09:23:08.829Z,27.40
2023-11-30T09:28:15.324Z,38.17
2023-11-30T09:33:23.230Z,28.65
2023-11-30T09:38:29.702Z,25.23
2023-11-30T09:43:36.522Z,22.40
2023-11-30T09:48:44.392Z,23.83
2023-11-30T09:53:50.857Z,20.70
2023-11-30T09:58:58.375Z,26.52
2023-11-30T10:04:17.339Z,22.80
2023-11-30T10:09:23.788Z,25.30
2023-11-30T10:14:30.369Z,25.58
2023-11-30T10:19:39.977Z,25.95
2023-11-30T10:24:46.567Z,23.20
2023-11-30T10:29:59.254Z,27.58
2023-11-30T10:35:09.155Z,23.20
2023-11-30T10:40:18.979Z,23.75
2023-11-30T10:45:27.644Z,21.77
2023-11-30T10:50:35.679Z,23.25
2023-11-30T10:55:42.855Z,24.27
2023-11-30T11:00:59.730Z,22.05
2023-11-30T11:06:11.912Z,22.30
2023-11-30T11:11:18.538Z,20.42
2023-11-30T11:16:37.461Z,17.40
2023-11-30T11:21:49.695Z,18.58
2023-11-30T11:27:00.955Z,19.08
2023-11-30T11:32:09.297Z,18.85
2023-11-30T11:37:17.668Z,21.80
2023-11-30T11:42:24.227Z,17.30
2023-11-30T11:47:30.929Z,19.48
2023-11-30T11:52:39.186Z,16.55
2023-11-30T11:57:47.699Z,17.60
2023-11-30T12:03:06.060Z,12.18
2023-11-30T12:08:14.273Z,16.20
2023-11-30T12:13:20.803Z,13.43
2023-11-30T12:18:27.212Z,16.58
2023-11-30T12:23:35.481Z,18.05
2023-11-30T12:28:41.793Z,14.00
2023-11-30T12:33:49.487Z,17.25
2023-11-30T12:38:58.039Z,15.88
2023-11-30T12:44:06.311Z,20.83
2023-11-30T12:49:12.783Z,16.52
2023-11-30T12:54:20.738Z,18.08
2023-11-30T12:59:27.132Z,19.17
2023-11-30T13:04:33.525Z,17.15
2023-11-30T13:09:41.713Z,23.23
2023-11-30T13:14:48.242Z,18.00
2023-11-30T13:19:54.618Z,23.25
2023-11-30T13:25:03.070Z,18.35
2023-11-30T13:30:11.746Z,14.73
2023-11-30T13:35:18.295Z,15.35
2023-11-30T13:40:26.410Z,15.48
2023-11-30T13:45:32.829Z,15.20
2023-11-30T13:50:49.096Z,15.93
2023-11-30T13:56:00.879Z,15.70
2023-11-30T14:01:08.826Z,16.43
2023-11-30T14:06:19.605Z,15.23
2023-11-30T14:11:27.981Z,39.40
2023-11-30T14:16:34.765Z,41.43
2023-11-30T14:21:41.734Z,37.80
2023-11-30T14:26:49.902Z,31.85
2023-11-30T14:31:56.347Z,26.63
2023-11-30T14:37:02.998Z,33.35
2023-11-30T14:42:12.042Z,37.47
2023-11-30T14:47:19.647Z,38.58
2023-11-30T14:52:26.360Z,40.63
2023-11-30T14:57:34.267Z,41.75
2023-11-30T15:02:43.107Z,31.87
2023-11-30T15:07:50.029Z,30.35
2023-11-30T15:12:58.050Z,28.13
2023-11-30T15:18:04.694Z,23.53
2023-11-30T15:23:11.390Z,28.33
2023-11-30T15:28:19.885Z,32.97
2023-11-30T15:33:27.771Z,61.53
2023-11-30T15:38:34.322Z,36.90
2023-11-30T15:43:42.390Z,41.58
2023-11-30T15:48:49.207Z,34.15
2023-11-30T15:53:56.118Z,37.67
2023-11-30T15:59:04.583Z,30.95
2023-11-30T16:04:11.403Z,38.55
2023-11-30T16:09:18.317Z,57.42
2023-11-30T16:14:26.992Z,183.88
2023-11-30T16:19:35.773Z,151.77
2023-11-30T16:29:50.232Z,216.80
2023-11-30T16:34:57.456Z,181.85
2023-11-30T16:40:06.195Z,186.68
2023-11-30T16:45:14.857Z,159.32
2023-11-30T16:55:28.254Z,195.38
2023-11-30T17:00:36.590Z,186.23
2023-11-30T17:05:43.595Z,164.02
2023-11-30T17:10:50.612Z,182.27
2023-11-30T17:15:59.150Z,162.60
2023-11-30T17:21:06.297Z,137.73
2023-11-30T17:26:13.405Z,140.60
2023-11-30T17:31:21.733Z,152.55
2023-11-30T17:36:28.371Z,142.15
2023-11-30T17:41:35.323Z,125.35
2023-11-30T17:46:44.665Z,127.82
2023-11-30T17:51:51.484Z,158.80
2023-11-30T17:57:00.240Z,206.15
2023-11-30T18:02:09.117Z,174.20
2023-11-30T18:07:16.401Z,164.10
2023-11-30T18:12:24.265Z,141.85
2023-11-30T18:17:33.508Z,176.70
2023-11-30T18:22:40.891Z,184.95
2023-11-30T18:27:47.736Z,170.68
2023-11-30T18:32:56.802Z,150.13
2023-11-30T18:38:04.010Z,132.35
2023-11-30T18:43:16.948Z,130.32
2023-11-30T18:48:28.614Z,133.57
2023-11-30T18:53:37.607Z,124.97
2023-11-30T18:58:47.041Z,129.32
2023-11-30T19:03:57.689Z,125.97
2023-11-30T19:09:07.381Z,121.53
2023-11-30T19:14:15.821Z,115.93
2023-11-30T19:19:25.262Z,113.43
2023-11-30T19:24:33.513Z,133.77
2023-11-30T19:29:42.760Z,137.70
2023-11-30T19:34:53.564Z,148.18
2023-11-30T19:40:04.280Z,150.45
2023-11-30T19:45:15.342Z,156.02
2023-11-30T19:50:26.296Z,143.70
2023-11-30T19:55:36.080Z,124.22
2023-11-30T20:00:45.680Z,122.28
2023-11-30T20:05:56.604Z,128.48
2023-11-30T20:11:10.822Z,127.65
2023-11-30T20:16:20.736Z,143.18
2023-11-30T20:21:30.748Z,156.57
2023-11-30T20:26:46.017Z,114.68
2023-11-30T20:31:55.930Z,122.82
2023-11-30T20:37:05.804Z,112.97
2023-11-30T20:42:14.210Z,107.72
2023-11-30T20:47:25.287Z,99.90
2023-11-30T20:52:34.243Z,102.53
2023-11-30T21:02:49.938Z,94.13
2023-11-30T21:07:58.832Z,90.80
2023-11-30T21:13:07.053Z,94.40
2023-11-30T21:18:13.486Z,63.85
2023-11-30T21:23:21.432Z,88.50
2023-11-30T21:28:27.849Z,84.33
2023-11-30T21:33:35.007Z,107.57
2023-11-30T21:38:43.104Z,90.72
2023-11-30T21:43:50.586Z,96.70
2023-11-30T21:48:57.217Z,88.38
2023-11-30T21:54:06.049Z,82.75
2023-11-30T21:59:12.767Z,93.97
2023-11-30T22:04:23.498Z,96.10
2023-11-30T22:09:31.772Z,88.32
2023-11-30T22:14:38.178Z,89.55
2023-11-30T22:19:44.471Z,92.70
2023-11-30T22:24:53.046Z,102.85
2023-11-30T22:29:59.357Z,91.82
2023-11-30T22:35:12.117Z,93.03
2023-11-30T22:40:20.620Z,89.20
2023-11-30T22:45:27.065Z,70.17
2023-11-30T22:50:33.734Z,90.68
2023-11-30T22:55:41.745Z,96.47
2023-11-30T23:00:48.560Z,76.43
2023-11-30T23:05:55.423Z,115.25
2023-11-30T23:11:03.701Z,92.25
2023-11-30T23:16:12.909Z,79.22
2023-11-30T23:21:19.749Z,75.03
2023-11-30T23:26:27.469Z,79.78
2023-11-30T23:31:34.356Z,83.73
2023-11-30T23:36:41.081Z,85.53
2023-11-30T23:41:50.743Z,82.97
2023-11-30T23:46:57.320Z,96.68
2023-11-30T23:52:04.040Z,98.90
2023-11-30T23:57:12.063Z,82.85
